createdAt,value
2022-09-30T00:01:44.180Z,62.33
2022-09-30T00:04:17.554Z,62.33
2022-09-30T00:06:46.978Z,62.36
2022-09-30T00:09:15.653Z,62.34
2022-09-30T00:11:44.646Z,62.56
2022-09-30T00:14:17.930Z,62.04
2022-09-30T00:16:46.827Z,62.19
2022-09-30T00:19:17.373Z,62.20
2022-09-30T00:21:46.571Z,62.23
2022-09-30T00:24:14.939Z,62.43
2022-09-30T00:26:43.346Z,62.39
2022-09-30T00:29:12.298Z,62.33
2022-09-30T00:31:40.934Z,62.45
2022-09-30T00:34:09.567Z,62.34
2022-09-30T00:36:43.767Z,62.54
2022-09-30T00:39:15.072Z,62.50
2022-09-30T00:41:44.542Z,62.29
2022-09-30T00:44:48.166Z,62.39
2022-09-30T00:47:32.144Z,62.43
2022-09-30T00:50:01.293Z,62.57
2022-09-30T00:52:32.210Z,62.63
2022-09-30T00:55:03.266Z,62.50
2022-09-30T00:57:32.331Z,62.46
2022-09-30T01:00:01.737Z,62.46
2022-09-30T01:02:30.877Z,62.34
2022-09-30T01:04:59.334Z,62.39
2022-09-30T01:07:28.321Z,62.50
2022-09-30T01:09:59.493Z,62.40
2022-09-30T01:12:28.424Z,62.01
2022-09-30T01:14:58.963Z,62.16
2022-09-30T01:17:38.568Z,62.13
2022-09-30T01:20:38.959Z,62.01
2022-09-30T01:23:48.103Z,62.20
2022-09-30T01:26:45.948Z,62.16
2022-09-30T01:30:01.790Z,62.07
2022-09-30T01:32:46.092Z,62.48
2022-09-30T01:35:26.846Z,62.11
2022-09-30T01:38:05.293Z,62.41
2022-09-30T01:40:42.910Z,62.12
2022-09-30T01:43:20.129Z,62.21
2022-09-30T01:45:58.590Z,62.05
2022-09-30T01:48:36.549Z,61.86
2022-09-30T01:51:11.537Z,61.98
2022-09-30T01:53:45.147Z,61.91
2022-09-30T01:56:18.685Z,62.06
2022-09-30T01:58:54.776Z,62.05
2022-09-30T02:01:28.807Z,62.00
2022-09-30T02:04:02.083Z,61.90
2022-09-30T02:06:36.535Z,62.15
2022-09-30T02:09:10.800Z,62.12
2022-09-30T02:11:40.933Z,62.22
2022-09-30T02:14:15.239Z,62.16
2022-09-30T02:16:49.528Z,62.01
2022-09-30T02:19:25.698Z,62.23
2022-09-30T02:21:58.469Z,62.40
2022-09-30T02:24:32.273Z,62.37
2022-09-30T02:27:03.226Z,62.28
2022-09-30T02:29:36.982Z,62.31
2022-09-30T02:32:09.568Z,62.51
2022-09-30T02:34:42.268Z,62.27
2022-09-30T02:37:14.895Z,61.98
2022-09-30T02:39:50.732Z,61.89
2022-09-30T02:42:21.687Z,62.40
2022-09-30T02:44:52.631Z,62.47
2022-09-30T02:47:29.690Z,62.35
2022-09-30T02:50:03.797Z,62.49
2022-09-30T02:52:49.014Z,62.36
2022-09-30T02:55:23.154Z,62.20
2022-09-30T02:58:01.440Z,62.25
2022-09-30T03:00:30.975Z,62.32
2022-09-30T03:03:02.965Z,62.32
2022-09-30T03:05:32.938Z,62.09
2022-09-30T03:08:02.728Z,62.48
2022-09-30T03:10:31.935Z,62.21
2022-09-30T03:13:17.593Z,62.10
2022-09-30T03:16:01.401Z,61.95
2022-09-30T03:18:45.923Z,62.23
2022-09-30T03:21:29.059Z,61.89
2022-09-30T03:24:27.337Z,62.25
2022-09-30T03:27:09.620Z,62.16
2022-09-30T03:29:48.821Z,62.17
2022-09-30T03:32:32.146Z,62.14
2022-09-30T03:35:15.151Z,62.05
2022-09-30T03:37:53.450Z,61.78
2022-09-30T03:40:31.610Z,61.80
2022-09-30T03:43:06.416Z,61.86
2022-09-30T03:45:40.314Z,62.19
2022-09-30T03:48:13.824Z,62.14
2022-09-30T03:50:43.237Z,61.93
2022-09-30T03:53:14.514Z,61.94
2022-09-30T03:55:52.197Z,61.66
2022-09-30T03:58:23.766Z,61.70
2022-09-30T04:00:54.418Z,61.55
2022-09-30T04:03:24.188Z,61.95
2022-09-30T04:05:52.566Z,61.80
2022-09-30T04:08:23.197Z,61.51
2022-09-30T04:10:51.561Z,61.69
2022-09-30T04:13:20.285Z,61.38
2022-09-30T04:15:55.419Z,61.58
2022-09-30T04:18:23.795Z,61.67
2022-09-30T04:20:52.194Z,61.76
2022-09-30T04:23:21.940Z,61.63
2022-09-30T04:25:54.885Z,61.71
2022-09-30T04:28:23.782Z,61.89
2022-09-30T04:30:52.099Z,61.64
2022-09-30T04:33:20.835Z,61.67
2022-09-30T04:35:49.501Z,61.88
2022-09-30T04:38:18.376Z,61.75
2022-09-30T04:40:49.661Z,61.69
2022-09-30T04:43:19.177Z,61.64
2022-09-30T04:45:48.398Z,61.83
2022-09-30T04:48:17.792Z,61.54
2022-09-30T04:50:46.483Z,61.77
2022-09-30T04:53:15.579Z,61.47
2022-09-30T04:55:44.189Z,61.87
2022-09-30T04:58:15.367Z,61.82
2022-09-30T05:00:43.787Z,61.87
2022-09-30T05:03:12.170Z,61.48
2022-09-30T05:05:42.280Z,61.69
2022-09-30T05:08:11.346Z,61.68
2022-09-30T05:10:40.296Z,61.69
2022-09-30T05:13:08.649Z,61.83
2022-09-30T05:15:38.492Z,61.54
2022-09-30T05:18:06.856Z,61.83
2022-09-30T05:20:35.829Z,61.98
2022-09-30T05:23:04.231Z,62.14
2022-09-30T05:25:33.167Z,61.77
2022-09-30T05:28:02.065Z,61.67
2022-09-30T05:30:30.610Z,61.83
2022-09-30T05:33:00.634Z,61.91
2022-09-30T05:35:29.926Z,62.14
2022-09-30T05:37:59.058Z,61.87
2022-09-30T05:40:27.719Z,61.91
2022-09-30T05:42:58.222Z,62.17
2022-09-30T05:45:27.104Z,61.92
2022-09-30T05:47:55.982Z,62.08
2022-09-30T05:50:27.127Z,61.82
2022-09-30T05:52:55.510Z,62.24
2022-09-30T05:55:24.254Z,62.26
2022-09-30T05:57:53.678Z,62.35
2022-09-30T06:00:22.365Z,62.07
2022-09-30T06:02:53.656Z,61.96
2022-09-30T06:05:22.917Z,62.08
2022-09-30T06:07:52.975Z,61.96
2022-09-30T06:10:21.326Z,62.33
2022-09-30T06:12:49.678Z,62.44
2022-09-30T06:15:18.135Z,62.23
2022-09-30T06:17:47.071Z,62.26
2022-09-30T06:20:15.454Z,62.45
2022-09-30T06:22:44.240Z,62.50
2022-09-30T06:25:14.854Z,62.42
2022-09-30T06:27:47.918Z,62.37
2022-09-30T06:30:16.381Z,62.48
2022-09-30T06:32:45.654Z,62.60
2022-09-30T06:35:13.982Z,62.89
2022-09-30T06:37:42.763Z,62.74
2022-09-30T06:40:11.595Z,62.71
2022-09-30T06:42:42.094Z,62.98
2022-09-30T06:45:18.993Z,62.65
2022-09-30T06:47:59.862Z,62.80
2022-09-30T06:50:29.089Z,62.84
2022-09-30T06:52:59.902Z,62.89
2022-09-30T06:55:28.397Z,63.01
2022-09-30T06:57:58.491Z,62.71
2022-09-30T07:00:28.858Z,62.87
2022-09-30T07:02:58.191Z,63.16
2022-09-30T07:05:27.262Z,62.99
2022-09-30T07:07:56.620Z,63.19
2022-09-30T07:10:25.127Z,63.31
2022-09-30T07:12:54.427Z,63.48
2022-09-30T07:15:24.341Z,63.40
2022-09-30T07:17:53.686Z,63.62
2022-09-30T07:20:22.427Z,63.61
2022-09-30T07:22:51.039Z,63.68
2022-09-30T07:25:20.375Z,63.93
2022-09-30T07:27:48.782Z,63.97
2022-09-30T07:30:25.778Z,64.15
2022-09-30T07:32:56.963Z,63.69
2022-09-30T07:35:25.568Z,63.47
2022-09-30T07:37:53.950Z,63.56
2022-09-30T07:40:22.423Z,63.16
2022-09-30T07:42:50.764Z,63.23
2022-09-30T07:45:19.586Z,63.13
2022-09-30T07:47:53.497Z,62.70
2022-09-30T07:50:24.134Z,62.29
2022-09-30T07:52:56.044Z,62.51
2022-09-30T07:55:24.430Z,62.18
2022-09-30T07:57:52.799Z,61.92
2022-09-30T08:00:41.616Z,61.65
2022-09-30T08:03:10.067Z,61.20
2022-09-30T08:05:44.847Z,60.77
2022-09-30T08:08:13.803Z,60.65
2022-09-30T08:10:42.247Z,60.59
2022-09-30T08:13:14.271Z,60.07
2022-09-30T08:15:42.649Z,59.97
2022-09-30T08:18:11.036Z,59.60
2022-09-30T08:20:39.402Z,59.45
2022-09-30T08:23:09.155Z,59.45
2022-09-30T08:25:37.855Z,59.08
2022-09-30T08:28:06.331Z,58.91
2022-09-30T08:30:36.987Z,58.58
2022-09-30T08:33:05.968Z,58.53
2022-09-30T08:35:36.866Z,57.90
2022-09-30T08:38:05.444Z,57.60
2022-09-30T08:40:45.796Z,57.40
2022-09-30T08:43:29.425Z,57.24
2022-09-30T08:46:07.633Z,57.16
2022-09-30T08:48:49.424Z,56.76
2022-09-30T08:51:31.887Z,56.46
2022-09-30T08:54:04.469Z,56.34
2022-09-30T08:56:35.440Z,56.30
2022-09-30T08:59:08.694Z,56.49
2022-09-30T09:01:39.934Z,56.83
2022-09-30T09:04:10.352Z,56.50
2022-09-30T09:06:50.905Z,56.12
2022-09-30T09:09:44.951Z,55.59
2022-09-30T09:12:31.131Z,55.78
2022-09-30T09:15:23.119Z,55.64
2022-09-30T09:18:24.914Z,55.31
2022-09-30T09:20:57.413Z,55.14
2022-09-30T09:23:28.654Z,54.88
2022-09-30T09:25:57.062Z,54.36
2022-09-30T09:28:38.790Z,53.68
2022-09-30T09:31:11.075Z,53.84
2022-09-30T09:33:40.843Z,53.48
2022-09-30T09:36:20.879Z,53.28
2022-09-30T09:39:05.412Z,53.62
2022-09-30T09:41:45.366Z,53.83
2022-09-30T09:44:25.174Z,53.86
2022-09-30T09:47:02.522Z,53.02
2022-09-30T09:49:35.910Z,52.69
2022-09-30T09:52:33.201Z,53.06
2022-09-30T09:55:01.720Z,53.22
2022-09-30T09:57:32.812Z,52.69
2022-09-30T10:00:27.346Z,52.35
2022-09-30T10:03:02.539Z,52.48
2022-09-30T10:05:39.815Z,52.83
2022-09-30T10:08:15.804Z,52.49
2022-09-30T10:10:48.272Z,52.46
2022-09-30T10:13:21.750Z,52.15
2022-09-30T10:15:54.224Z,51.90
2022-09-30T10:18:27.233Z,51.55
2022-09-30T10:20:59.133Z,51.71
2022-09-30T10:23:30.231Z,51.30
2022-09-30T10:26:05.342Z,50.37
2022-09-30T10:28:36.437Z,50.39
2022-09-30T10:31:15.767Z,50.04
2022-09-30T10:33:47.262Z,50.00
2022-09-30T10:36:19.219Z,50.03
2022-09-30T10:39:02.605Z,49.68
2022-09-30T10:41:36.528Z,49.36
2022-09-30T10:44:09.348Z,48.65
2022-09-30T10:46:42.181Z,48.36
2022-09-30T10:49:13.792Z,47.39
2022-09-30T10:51:47.120Z,47.40
2022-09-30T10:54:48.096Z,45.28
2022-09-30T10:57:17.771Z,45.65
2022-09-30T10:59:48.359Z,45.44
2022-09-30T11:02:31.989Z,44.73
2022-09-30T11:05:13.663Z,44.72
2022-09-30T11:07:47.611Z,43.94
2022-09-30T11:10:33.282Z,43.67
2022-09-30T11:13:10.068Z,43.01
2022-09-30T11:15:46.554Z,41.27
2022-09-30T11:18:23.374Z,41.47
2022-09-30T11:20:57.807Z,42.00
2022-09-30T11:23:33.070Z,42.10
2022-09-30T11:26:07.999Z,41.02
2022-09-30T11:29:00.032Z,41.06
2022-09-30T11:31:34.369Z,41.76
2022-09-30T11:34:19.235Z,41.50
2022-09-30T11:36:57.520Z,41.86
2022-09-30T11:40:01.544Z,41.51
2022-09-30T11:42:38.738Z,41.44
2022-09-30T11:45:20.718Z,41.36
2022-09-30T11:48:05.600Z,41.43
2022-09-30T11:50:54.511Z,41.07
2022-09-30T11:53:36.091Z,41.63
2022-09-30T11:56:34.707Z,41.09
2022-09-30T11:59:07.876Z,40.81
2022-09-30T12:01:42.817Z,40.14
2022-09-30T12:04:17.198Z,40.08
2022-09-30T12:06:52.316Z,38.68
2022-09-30T12:09:26.796Z,38.96
2022-09-30T12:12:00.180Z,39.24
2022-09-30T12:14:34.820Z,39.16
2022-09-30T12:17:13.226Z,39.44
2022-09-30T12:19:46.988Z,39.51
2022-09-30T12:22:21.575Z,39.83
2022-09-30T12:24:49.944Z,39.70
2022-09-30T12:27:26.551Z,39.39
2022-09-30T12:30:20.589Z,38.92
2022-09-30T12:33:21.590Z,38.88
2022-09-30T12:36:11.046Z,39.34
2022-09-30T12:38:59.842Z,38.92
2022-09-30T12:41:48.799Z,38.72
2022-09-30T12:44:45.660Z,39.06
2022-09-30T12:47:28.685Z,38.11
2022-09-30T12:49:59.994Z,38.57
2022-09-30T12:52:34.106Z,39.21
2022-09-30T12:55:10.508Z,38.79
2022-09-30T12:57:44.255Z,38.71
2022-09-30T13:00:16.636Z,39.19
2022-09-30T13:02:48.337Z,39.53
2022-09-30T13:05:56.416Z,39.77
2022-09-30T13:08:45.959Z,39.35
2022-09-30T13:11:36.366Z,39.61
2022-09-30T13:14:33.878Z,39.80
2022-09-30T13:17:27.305Z,39.64
2022-09-30T13:19:57.595Z,39.62
2022-09-30T13:22:56.174Z,39.26
2022-09-30T13:25:24.533Z,39.62
2022-09-30T13:28:10.882Z,39.46
2022-09-30T13:30:41.539Z,39.13
2022-09-30T13:33:32.041Z,39.63
2022-09-30T13:36:10.448Z,39.58
2022-09-30T13:38:41.699Z,39.70
2022-09-30T13:41:19.334Z,39.55
2022-09-30T13:43:56.916Z,39.27
2022-09-30T13:46:36.106Z,38.44
2022-09-30T13:49:15.675Z,38.77
2022-09-30T13:51:45.501Z,39.31
2022-09-30T13:54:24.883Z,39.59
2022-09-30T13:56:54.406Z,39.54
2022-09-30T13:59:43.238Z,39.18
2022-09-30T14:02:34.091Z,39.05
2022-09-30T14:05:31.088Z,38.27
2022-09-30T14:08:29.359Z,38.16
2022-09-30T14:11:13.792Z,37.70
2022-09-30T14:13:56.477Z,37.63
2022-09-30T14:16:54.696Z,37.77
2022-09-30T14:19:51.754Z,37.37
2022-09-30T14:22:25.919Z,37.07
2022-09-30T14:24:54.618Z,37.43
2022-09-30T14:27:40.347Z,37.80
2022-09-30T14:30:14.615Z,37.86
2022-09-30T14:32:49.863Z,38.12
2022-09-30T14:35:21.263Z,38.33
2022-09-30T14:37:54.434Z,38.21
2022-09-30T14:40:27.823Z,38.34
2022-09-30T14:43:03.019Z,38.35
2022-09-30T14:45:34.436Z,38.09
2022-09-30T14:48:09.485Z,38.52
2022-09-30T14:50:42.767Z,38.87
2022-09-30T14:53:26.642Z,39.65
2022-09-30T14:55:55.406Z,39.75
2022-09-30T14:58:30.824Z,39.50
2022-09-30T15:01:05.984Z,39.80
2022-09-30T15:03:38.304Z,39.64
2022-09-30T15:06:17.708Z,40.00
2022-09-30T15:08:47.103Z,40.34
2022-09-30T15:11:20.456Z,40.13
2022-09-30T15:13:50.464Z,40.21
2022-09-30T15:16:30.822Z,40.65
2022-09-30T15:19:02.628Z,40.90
2022-09-30T15:21:35.595Z,40.78
2022-09-30T15:24:04.500Z,40.61
2022-09-30T15:26:35.367Z,41.14
2022-09-30T15:29:05.987Z,41.46
2022-09-30T15:31:36.407Z,41.64
2022-09-30T15:34:14.579Z,42.11
2022-09-30T15:36:45.303Z,41.85
2022-09-30T15:39:23.450Z,42.10
2022-09-30T15:41:53.417Z,41.96
2022-09-30T15:44:38.891Z,41.51
2022-09-30T15:47:10.212Z,41.27
2022-09-30T15:49:50.250Z,41.43
2022-09-30T15:52:29.827Z,41.60
2022-09-30T15:54:59.594Z,41.77
2022-09-30T15:57:48.815Z,42.00
2022-09-30T16:00:38.173Z,42.44
2022-09-30T16:03:29.252Z,42.60
2022-09-30T16:06:09.027Z,42.91
2022-09-30T16:08:44.707Z,43.00
2022-09-30T16:11:21.741Z,43.18
2022-09-30T16:13:52.581Z,43.35
2022-09-30T16:16:24.872Z,43.45
2022-09-30T16:18:54.921Z,43.77
2022-09-30T16:21:43.793Z,44.40
2022-09-30T16:24:47.789Z,44.77
2022-09-30T16:27:31.561Z,45.02
2022-09-30T16:30:01.712Z,45.04
2022-09-30T16:32:34.558Z,45.49
2022-09-30T16:35:04.368Z,45.68
2022-09-30T16:37:35.368Z,45.97
2022-09-30T16:40:25.950Z,46.22
2022-09-30T16:42:56.468Z,46.37
2022-09-30T16:45:25.204Z,46.85
2022-09-30T16:47:54.239Z,47.10
2022-09-30T16:50:30.724Z,47.28
2022-09-30T16:53:00.791Z,47.46
2022-09-30T16:55:29.487Z,47.48
2022-09-30T16:57:59.027Z,47.56
2022-09-30T17:00:28.178Z,47.95
2022-09-30T17:02:57.237Z,48.11
2022-09-30T17:05:27.441Z,48.40
2022-09-30T17:07:58.539Z,48.39
2022-09-30T17:10:30.648Z,48.74
2022-09-30T17:13:01.625Z,48.73
2022-09-30T17:15:31.655Z,48.82
2022-09-30T17:18:01.520Z,49.09
2022-09-30T17:20:29.971Z,49.24
2022-09-30T17:22:58.687Z,49.28
2022-09-30T17:25:29.081Z,49.50
2022-09-30T17:27:58.091Z,49.66
2022-09-30T17:30:27.321Z,49.81
2022-09-30T17:32:55.655Z,50.06
2022-09-30T17:35:24.450Z,50.34
2022-09-30T17:37:52.914Z,50.39
2022-09-30T17:40:38.787Z,50.40
2022-09-30T17:43:11.217Z,50.75
2022-09-30T17:45:41.707Z,50.92
2022-09-30T17:48:11.509Z,51.00
2022-09-30T17:50:42.436Z,51.13
2022-09-30T17:53:13.753Z,51.15
2022-09-30T17:55:42.346Z,51.34
2022-09-30T17:58:12.651Z,51.43
2022-09-30T18:00:41.733Z,51.51
2022-09-30T18:03:11.001Z,51.67
2022-09-30T18:05:39.782Z,51.98
2022-09-30T18:08:08.167Z,51.78
2022-09-30T18:10:38.042Z,51.96
2022-09-30T18:13:06.687Z,52.05
2022-09-30T18:15:39.125Z,52.13
2022-09-30T18:18:08.178Z,51.94
2022-09-30T18:20:36.781Z,51.65
2022-09-30T18:23:05.278Z,51.53
2022-09-30T18:25:34.895Z,51.58
2022-09-30T18:28:03.579Z,51.65
2022-09-30T18:30:32.214Z,51.63
2022-09-30T18:33:03.231Z,51.78
2022-09-30T18:35:33.575Z,51.85
2022-09-30T18:38:02.508Z,52.00
2022-09-30T18:40:31.883Z,52.25
2022-09-30T18:43:02.738Z,52.58
2022-09-30T18:45:33.173Z,52.75
2022-09-30T18:48:03.674Z,52.99
2022-09-30T18:50:34.394Z,53.22
2022-09-30T18:53:09.509Z,53.34
2022-09-30T18:55:39.156Z,53.43
2022-09-30T18:58:07.902Z,53.61
2022-09-30T19:00:36.932Z,53.78
2022-09-30T19:03:10.648Z,54.22
2022-09-30T19:05:39.296Z,54.51
2022-09-30T19:08:08.879Z,54.47
2022-09-30T19:10:42.516Z,54.35
2022-09-30T19:13:11.581Z,54.63
2022-09-30T19:15:40.766Z,54.68
2022-09-30T19:18:11.903Z,55.05
2022-09-30T19:20:42.150Z,55.28
2022-09-30T19:23:11.088Z,55.28
2022-09-30T19:25:40.678Z,55.53
2022-09-30T19:28:09.202Z,55.50
2022-09-30T19:30:42.385Z,55.72
2022-09-30T19:33:12.407Z,55.72
2022-09-30T19:35:41.172Z,56.16
2022-09-30T19:38:09.912Z,55.95
2022-09-30T19:40:38.261Z,56.11
2022-09-30T19:43:08.365Z,56.08
2022-09-30T19:45:36.783Z,56.28
2022-09-30T19:48:05.348Z,56.49
2022-09-30T19:50:37.239Z,56.36
2022-09-30T19:53:05.878Z,56.63
2022-09-30T19:55:48.521Z,56.73
2022-09-30T19:58:18.979Z,57.01
2022-09-30T20:00:56.498Z,56.94
2022-09-30T20:03:29.243Z,56.88
2022-09-30T20:06:05.016Z,56.95
2022-09-30T20:08:36.202Z,57.05
2022-09-30T20:11:05.571Z,57.15
2022-09-30T20:13:34.517Z,57.32
2022-09-30T20:16:02.924Z,57.45
2022-09-30T20:18:31.599Z,57.71
2022-09-30T20:21:00.096Z,57.57
2022-09-30T20:23:30.197Z,57.51
2022-09-30T20:26:02.348Z,57.28
2022-09-30T20:28:30.782Z,57.04
2022-09-30T20:30:59.734Z,56.77
2022-09-30T20:33:28.082Z,56.83
2022-09-30T20:35:56.734Z,56.66
2022-09-30T20:38:25.694Z,56.50
2022-09-30T20:40:59.398Z,56.43
2022-09-30T20:43:30.217Z,57.02
2022-09-30T20:46:01.253Z,56.55
2022-09-30T20:48:33.576Z,56.39
2022-09-30T20:51:05.286Z,56.53
2022-09-30T20:53:34.291Z,56.56
2022-09-30T20:56:04.359Z,56.69
2022-09-30T20:58:32.987Z,56.64
2022-09-30T21:01:05.490Z,56.59
2022-09-30T21:03:36.471Z,56.69
2022-09-30T21:06:05.012Z,56.70
2022-09-30T21:08:33.668Z,56.74
2022-09-30T21:11:05.102Z,57.00
2022-09-30T21:13:33.627Z,57.12
2022-09-30T21:16:02.462Z,57.32
2022-09-30T21:18:30.936Z,57.42
2022-09-30T21:21:00.635Z,57.38
2022-09-30T21:23:30.202Z,57.60
2022-09-30T21:25:59.170Z,57.74
2022-09-30T21:28:29.459Z,57.57
2022-09-30T21:30:58.011Z,57.92
2022-09-30T21:33:28.086Z,57.95
2022-09-30T21:36:01.752Z,57.80
2022-09-30T21:38:30.755Z,58.10
2022-09-30T21:41:00.631Z,58.05
2022-09-30T21:43:32.439Z,58.33
2022-09-30T21:46:02.377Z,58.34
2022-09-30T21:48:33.312Z,58.86
2022-09-30T21:51:02.435Z,58.49
2022-09-30T21:53:30.862Z,58.62
2022-09-30T21:56:01.075Z,58.57
2022-09-30T21:58:34.371Z,58.76
2022-09-30T22:01:04.293Z,59.05
2022-09-30T22:03:37.485Z,59.13
2022-09-30T22:06:08.380Z,59.23
2022-09-30T22:08:40.320Z,59.31
2022-09-30T22:11:11.438Z,59.59
2022-09-30T22:13:43.552Z,59.96
2022-09-30T22:16:12.486Z,59.92
2022-09-30T22:18:40.823Z,60.18
2022-09-30T22:21:11.679Z,60.10
2022-09-30T22:23:40.398Z,60.37
2022-09-30T22:26:09.914Z,60.38
2022-09-30T22:28:38.496Z,60.54
2022-09-30T22:31:16.564Z,60.52
2022-09-30T22:34:02.171Z,60.73
2022-09-30T22:36:47.558Z,60.64
2022-09-30T22:39:15.976Z,60.54
2022-09-30T22:41:44.643Z,60.65
2022-09-30T22:44:13.450Z,60.35
2022-09-30T22:46:43.489Z,60.71
2022-09-30T22:49:11.928Z,60.91
2022-09-30T22:51:40.700Z,60.87
2022-09-30T22:54:09.350Z,61.00
2022-09-30T22:56:37.696Z,60.99
2022-09-30T22:59:07.045Z,61.08
2022-09-30T23:01:35.659Z,61.19
2022-09-30T23:04:06.562Z,61.14
2022-09-30T23:06:34.847Z,61.17
2022-09-30T23:09:06.353Z,61.20
2022-09-30T23:11:35.888Z,61.10
2022-09-30T23:14:04.671Z,61.20
2022-09-30T23:16:33.194Z,61.00
2022-09-30T23:19:01.864Z,61.06
2022-09-30T23:21:32.378Z,60.87
2022-09-30T23:24:01.235Z,61.03
2022-09-30T23:26:31.383Z,61.13
2022-09-30T23:29:01.000Z,61.26
2022-09-30T23:31:30.047Z,61.26
2022-09-30T23:34:00.446Z,61.20
2022-09-30T23:36:30.639Z,61.02
2022-09-30T23:39:03.953Z,61.32
2022-09-30T23:41:34.516Z,61.12
2022-09-30T23:44:04.459Z,61.25
2022-09-30T23:46:33.706Z,61.16
2022-09-30T23:49:02.079Z,61.15
2022-09-30T23:51:34.486Z,61.32
2022-09-30T23:54:04.862Z,61.39
2022-09-30T23:56:33.463Z,61.51
2022-09-30T23:59:01.818Z,61.24
